Basango Mboliasa Airport


Codes: FZBT/KRZ
Name: Basango Mboliasa Airport
City: Kiri
Country: Congo [DRC]
Elevation: 1013 ft.

Photos at Basango Mboliasa Airport


   Photos courtesy of SpottingLog. You can add your own sightings and photos by signing up for a free trial today.



No photos found.

Weather at Basango Mboliasa Airport


Time (UTC)DescriptionTempratureWindCloud coverageVisibilityPressureHumidity
18-Apr-2024 00:00Broken Clouds25°C2 mph, S79%10000m1009hPa80%
18-Apr-2024 03:00Broken Clouds24°C0 mph, NW83%10000m1009hPa84%
18-Apr-2024 06:00Overcast Clouds26°C4 mph, SE91%10000m1011hPa77%
18-Apr-2024 09:00Broken Clouds32°C7 mph, S82%10000m1011hPa54%
18-Apr-2024 12:00Scattered Clouds36°C4 mph, S49%10000m1007hPa38%
18-Apr-2024 15:00Overcast Clouds33°C7 mph, SE90%10000m1006hPa45%
18-Apr-2024 18:00Broken Clouds27°C4 mph, S63%10000m1007hPa65%
18-Apr-2024 21:00Broken Clouds25°C2 mph, S69%10000m1009hPa74%
19-Apr-2024 00:00Light Rain22°C2 mph, NW75%10000m1010hPa89%
19-Apr-2024 03:00Light Rain22°C2 mph, W100%10000m1010hPa92%
19-Apr-2024 06:00Light Rain23°C2 mph, E99%8437m1012hPa95%
19-Apr-2024 09:00Moderate Rain22°C2 mph, NE100%4183m1015hPa99%
19-Apr-2024 12:00Moderate Rain23°C7 mph, SE100%10000m1012hPa98%
19-Apr-2024 15:00Light Rain24°C2 mph, E100%10000m1009hPa95%
19-Apr-2024 18:00Overcast Clouds22°C4 mph, SW100%10000m1007hPa97%
19-Apr-2024 21:00Overcast Clouds21°C2 mph, E100%10000m1009hPa98%
20-Apr-2024 00:00Overcast Clouds21°C2 mph, NE100%10000m1010hPa98%
20-Apr-2024 03:00Overcast Clouds20°C2 mph, N99%10000m1009hPa98%
20-Apr-2024 06:00Overcast Clouds23°C2 mph, S98%10000m1011hPa89%
20-Apr-2024 09:00Overcast Clouds32°C4 mph, SE98%10000m1011hPa51%
20-Apr-2024 12:00Overcast Clouds36°C4 mph, SE97%10000m1007hPa36%
20-Apr-2024 15:00Overcast Clouds35°C2 mph, E100%10000m1005hPa38%
20-Apr-2024 18:00Light Rain27°C4 mph, NE99%10000m1008hPa70%
20-Apr-2024 21:00Light Rain23°C0 mph, W91%10000m1009hPa95%
21-Apr-2024 00:00Overcast Clouds22°C2 mph, SW96%10000m1008hPa97%
21-Apr-2024 03:00Light Rain22°C2 mph, NE100%10000m1009hPa98%
21-Apr-2024 06:00Light Rain23°C2 mph, NE100%10000m1009hPa95%
21-Apr-2024 09:00Overcast Clouds32°C2 mph, SE97%10000m1010hPa53%
21-Apr-2024 12:00Overcast Clouds36°C2 mph, SE87%10000m1006hPa37%
21-Apr-2024 15:00Light Rain31°C7 mph, SE42%10000m1005hPa56%
21-Apr-2024 18:00Heavy Intensity Rain22°C7 mph, SW67%10000m1006hPa95%
21-Apr-2024 21:00Light Rain22°C2 mph, NW100%10000m1009hPa95%
22-Apr-2024 00:00Light Rain21°C2 mph, S89%10000m1008hPa95%
22-Apr-2024 03:00Overcast Clouds22°C2 mph, SE100%10000m1008hPa95%
22-Apr-2024 06:00Overcast Clouds24°C2 mph, SE100%10000m1010hPa92%
22-Apr-2024 09:00Overcast Clouds26°C4 mph, E100%10000m1011hPa80%
22-Apr-2024 12:00Overcast Clouds28°C2 mph, SE100%10000m1008hPa68%
22-Apr-2024 15:00Overcast Clouds33°C2 mph, E92%10000m1005hPa50%
22-Apr-2024 18:00Broken Clouds26°C0 mph, S74%10000m1006hPa74%
22-Apr-2024 21:00Overcast Clouds25°C2 mph, S91%10000m1007hPa80%